Time;durP1;ratioP1;P1;durP2;ratioP2;P2;SDS_P1;SDS_P2;PMS_P1;PMS_P2;Temp;Humidity;BMP_temperature;BMP_pressure;BME280_temperature;BME280_humidity;BME280_pressure;Samples;Min_cycle;Max_cycle;Signal;HPM_P1;HPM_P2
2022/09/06 00:00:05;;;;;;;;;;;;;;;27.38;52.19;98846.56;5093193;28;19919;-47
2022/09/06 00:02:35;;;;;;;;;;;;;;;27.42;51.62;98852.94;5094507;28;20310;-48
2022/09/06 00:05:01;;;;;;;;;;;;;;;27.52;51.68;98849.19;5094492;28;19915;-48
2022/09/06 00:07:26;;;;;;;;;;;;;;;27.46;51.12;98851.22;5093126;28;19957;-48
2022/09/06 00:09:51;;;;;;;;;;;;;;;27.35;52.14;98858.78;5094413;28;19911;-48
2022/09/06 00:12:17;;;;;;;;;;;;;;;27.41;51.76;98852.16;5094313;28;19916;-48
2022/09/06 00:14:42;;;;;;;;;;;;;;;27.38;51.80;98852.75;5094563;28;19912;-48
2022/09/06 00:17:08;;;;;;;;;;;;;;;27.20;52.13;98838.34;5092903;28;19912;-48
2022/09/06 00:19:33;;;;;;;;;;;;;;;27.20;52.34;98840.25;5094159;28;19919;-48
2022/09/06 00:21:58;;;;;;;;;;;;;;;27.19;52.68;98842.16;5094134;28;19912;-48
2022/09/06 00:24:27;;;;;;;;;;;;;;;27.20;52.11;98843.72;5092796;28;19916;-48
2022/09/06 00:26:52;;;;;;;;;;;;;;;26.96;52.74;98835.94;5094020;28;19912;-48
2022/09/06 00:29:18;;;;;;;;;;;;;;;26.83;53.20;98848.38;5093931;28;19923;-48
2022/09/06 00:31:43;;;;;;;;;;;;;;;26.76;53.06;98839.91;5092728;28;19919;-48
2022/09/06 00:34:09;;;;;;;;;;;;;;;26.74;53.43;98838.63;5093411;28;19916;-50
2022/09/06 00:36:34;;;;;;;;;;;;;;;26.58;53.46;98846.22;5092518;28;19919;-48
2022/09/06 00:38:59;;;;;;;;;;;;;;;26.49;54.08;98833.44;5092421;28;19923;-48
2022/09/06 00:41:25;;;;;;;;;;;;;;;26.48;54.26;98837.25;5093804;28;19955;-49
2022/09/06 00:43:50;;;;;;;;;;;;;;;26.46;54.16;98844.84;5092419;28;20285;-48
2022/09/06 00:46:24;;;;;;;;;;;;;;;26.40;54.32;98835.28;5093666;28;19973;-48
2022/09/06 00:48:52;;;;;;;;;;;;;;;26.36;54.42;98834.28;5092310;28;19912;-49
2022/09/06 00:51:19;;;;;;;;;;;;;;;26.38;54.77;98833.97;5092929;28;20003;-49
2022/09/06 00:53:45;;;;;;;;;;;;;;;26.52;53.90;98837.41;5092521;28;19919;-49
2022/09/06 00:56:11;;;;;;;;;;;;;;;26.61;53.60;98832.16;5092150;28;19916;-49
2022/09/06 00:58:37;;;;;;;;;;;;;;;26.67;53.47;98841.72;5093409;28;20313;-48
2022/09/06 01:01:04;;;;;;;;;;;;;;;26.74;52.93;98841.31;5092044;28;19912;-48
2022/09/06 01:03:29;;;;;;;;;;;;;;;26.64;52.93;98850.41;5093377;28;20350;-49
2022/09/06 01:06:13;;;;;;;;;;;;;;;26.44;53.40;98852.41;5093324;28;19912;-49
2022/09/06 01:08:58;;;;;;;;;;;;;;;26.31;53.67;98842.44;5093557;28;19911;-49
2022/09/06 01:11:23;;;;;;;;;;;;;;;26.21;54.20;98848.03;5093199;28;19912;-49
2022/09/06 01:14:03;;;;;;;;;;;;;;;26.18;54.48;98851.31;5091908;28;19918;-50
2022/09/06 01:16:51;;;;;;;;;;;;;;;26.25;54.10;98855.19;5093149;28;20400;-49
2022/09/06 01:19:35;;;;;;;;;;;;;;;26.20;54.21;98854.50;5087086;28;19919;-48
2022/09/06 01:22:27;;;;;;;;;;;;;;;26.22;54.25;98852.31;5093020;28;20324;-48
2022/09/06 01:24:52;;;;;;;;;;;;;;;26.18;54.39;98851.31;5076570;28;20301;-48
2022/09/06 01:27:36;;;;;;;;;;;;;;;26.28;54.18;98848.44;5092918;28;19912;-48
2022/09/06 01:30:09;;;;;;;;;;;;;;;26.24;54.15;98855.50;5092897;28;19912;-48
2022/09/06 01:32:46;;;;;;;;;;;;;;;26.20;54.78;98849.13;5091337;28;19919;-48
2022/09/06 01:35:16;;;;;;;;;;;;;;;26.24;54.36;98852.81;5092859;28;19923;-48
2022/09/06 01:37:45;;;;;;;;;;;;;;;26.22;54.21;98852.31;5092797;28;19912;-49
2022/09/06 01:40:10;;;;;;;;;;;;;;;26.29;54.19;98850.81;5092635;28;20374;-48
2022/09/06 01:42:37;;;;;;;;;;;;;;;26.25;54.19;98843.66;5091386;28;19912;-48
2022/09/06 01:45:03;;;;;;;;;;;;;;;26.18;54.12;98844.06;5092624;28;19912;-48
2022/09/06 01:47:35;;;;;;;;;;;;;;;26.10;54.45;98839.38;5092661;28;19912;-48
2022/09/06 01:50:00;;;;;;;;;;;;;;;26.15;54.68;98841.16;5092529;28;20006;-49
2022/09/06 01:52:33;;;;;;;;;;;;;;;26.19;54.32;98845.63;5091297;28;19919;-50
2022/09/06 01:55:21;;;;;;;;;;;;;;;26.16;54.30;98838.19;5091193;28;20443;-49
2022/09/06 01:58:10;;;;;;;;;;;;;;;26.20;54.94;98832.97;5092614;28;19911;-49
2022/09/06 02:00:46;;;;;;;;;;;;;;;26.28;54.61;98838.47;5092588;28;20325;-48
2022/09/06 02:03:30;;;;;;;;;;;;;;;26.41;54.62;98836.84;5092398;28;19920;-50
2022/09/06 02:06:03;;;;;;;;;;;;;;;26.58;53.76;98843.53;5092373;28;19923;-49
2022/09/06 02:08:31;;;;;;;;;;;;;;;26.53;53.78;98843.63;5091114;28;19916;-49
2022/09/06 02:10:59;;;;;;;;;;;;;;;26.41;54.19;98834.16;5092317;28;19919;-49
2022/09/06 02:13:26;;;;;;;;;;;;;;;26.44;54.31;98841.66;5091020;28;19912;-49
2022/09/06 02:15:57;;;;;;;;;;;;;;;26.56;54.27;98841.13;5092313;28;19919;-50
2022/09/06 02:18:25;;;;;;;;;;;;;;;26.81;54.24;98842.47;5092208;28;20297;-48
2022/09/06 02:20:53;;;;;;;;;;;;;;;26.90;53.56;98842.53;5092278;28;19912;-48
2022/09/06 02:23:22;;;;;;;;;;;;;;;26.93;53.64;98841.94;5090852;28;20003;-48
2022/09/06 02:25:56;;;;;;;;;;;;;;;26.99;53.86;98851.50;5090918;28;20010;-50
2022/09/06 02:28:22;;;;;;;;;;;;;;;27.21;53.70;98848.03;5092172;28;20471;-50
2022/09/06 02:30:54;;;;;;;;;;;;;;;27.05;53.31;98852.19;5092185;28;20014;-49
2022/09/06 02:33:22;;;;;;;;;;;;;;;26.78;53.97;98847.69;5091549;28;19965;-49
2022/09/06 02:35:49;;;;;;;;;;;;;;;26.60;54.20;98849.41;5092079;28;19954;-49
2022/09/06 02:38:15;;;;;;;;;;;;;;;26.55;54.73;98847.59;5092012;28;19912;-50
2022/09/06 02:40:42;;;;;;;;;;;;;;;26.64;54.92;98845.00;5092289;28;19927;-49
2022/09/06 02:43:08;;;;;;;;;;;;;;;26.47;54.17;98840.25;5092304;28;19912;-50
2022/09/06 02:45:33;;;;;;;;;;;;;;;26.26;54.84;98837.97;5090671;28;20437;-50
2022/09/06 02:47:59;;;;;;;;;;;;;;;25.99;55.44;98838.75;5090661;28;20274;-49
2022/09/06 02:50:24;;;;;;;;;;;;;;;25.75;56.41;98844.28;5091960;28;19912;-49
2022/09/06 02:53:04;;;;;;;;;;;;;;;25.63;57.06;98850.13;5090642;28;19919;-50
2022/09/06 02:55:29;;;;;;;;;;;;;;;25.65;57.06;98850.63;5091931;28;19919;-49
2022/09/06 02:57:55;;;;;;;;;;;;;;;25.69;57.03;98848.16;5090516;28;19912;-48
2022/09/06 03:00:20;;;;;;;;;;;;;;;25.86;56.81;98855.66;5092122;28;19916;-49
2022/09/06 03:02:45;;;;;;;;;;;;;;;25.97;56.59;98854.41;5091889;28;19999;-49
2022/09/06 03:05:11;;;;;;;;;;;;;;;25.92;56.46;98846.44;5091767;28;19912;-49
2022/09/06 03:07:36;;;;;;;;;;;;;;;25.83;56.97;98840.91;5090538;28;19912;-49
2022/09/06 03:10:02;;;;;;;;;;;;;;;25.92;56.66;98843.75;5091721;28;19941;-50
2022/09/06 03:12:27;;;;;;;;;;;;;;;25.88;56.71;98846.19;5091735;28;20037;-48
2022/09/06 03:14:53;;;;;;;;;;;;;;;25.81;56.46;98843.09;5091390;28;20034;-50
2022/09/06 03:17:18;;;;;;;;;;;;;;;25.81;56.80;98836.94;5095376;28;19995;-49
2022/09/06 03:19:45;;;;;;;;;;;;;;;25.86;57.01;98839.53;5095288;28;19916;-50
2022/09/06 03:22:11;;;;;;;;;;;;;;;25.94;56.97;98838.06;5095282;28;19912;-49
2022/09/06 03:24:36;;;;;;;;;;;;;;;25.95;56.49;98836.97;5095280;28;20340;-48
2022/09/06 03:27:02;;;;;;;;;;;;;;;25.87;56.78;98838.44;5095128;28;19916;-48
2022/09/06 03:29:27;;;;;;;;;;;;;;;25.94;56.87;98846.13;5093895;28;19938;-49
2022/09/06 03:31:52;;;;;;;;;;;;;;;26.10;56.45;98837.47;5095344;28;19915;-49
2022/09/06 03:34:18;;;;;;;;;;;;;;;26.10;56.53;98837.47;5094827;28;20384;-50
2022/09/06 03:36:43;;;;;;;;;;;;;;;26.02;56.42;98846.25;5095068;28;20278;-50
2022/09/06 03:39:09;;;;;;;;;;;;;;;25.89;57.07;98838.94;5093594;28;19916;-49
2022/09/06 03:41:37;;;;;;;;;;;;;;;25.66;57.47;98830.75;5093651;28;19954;-49
2022/09/06 03:44:03;;;;;;;;;;;;;;;25.61;57.44;98838.09;5094907;28;19916;-49
2022/09/06 03:46:29;;;;;;;;;;;;;;;25.52;57.99;98833.41;5094869;28;20278;-50
2022/09/06 03:48:56;;;;;;;;;;;;;;;25.54;57.97;98825.03;5094846;28;19922;-49
2022/09/06 03:51:25;;;;;;;;;;;;;;;25.57;58.28;98832.50;5094832;28;19919;-49
2022/09/06 03:53:50;;;;;;;;;;;;;;;25.64;57.82;98834.81;5094764;28;19916;-49
2022/09/06 03:56:15;;;;;;;;;;;;;;;25.61;57.77;98830.81;5094657;28;20002;-50
2022/09/06 03:58:41;;;;;;;;;;;;;;;25.60;58.00;98829.25;5094584;28;19916;-50
2022/09/06 04:01:09;;;;;;;;;;;;;;;25.54;57.86;98830.44;5094592;28;20408;-49
2022/09/06 04:03:35;;;;;;;;;;;;;;;25.59;58.13;98827.63;5094547;28;19912;-49
2022/09/06 04:06:01;;;;;;;;;;;;;;;25.55;58.16;98820.47;5093192;28;20404;-49
2022/09/06 04:08:27;;;;;;;;;;;;;;;25.59;58.28;98816.09;5094719;28;19912;-50
2022/09/06 04:10:53;;;;;;;;;;;;;;;25.66;57.71;98821.88;5094367;28;19912;-50
2022/09/06 04:13:19;;;;;;;;;;;;;;;25.75;57.88;98820.09;5094323;28;20073;-50
2022/09/06 04:15:46;;;;;;;;;;;;;;;25.69;57.84;98810.53;5094628;28;19949;-49
2022/09/06 04:18:12;;;;;;;;;;;;;;;25.57;58.10;98813.69;5094218;28;19912;-49
2022/09/06 04:20:37;;;;;;;;;;;;;;;25.60;57.91;98810.41;5092846;28;19927;-50
2022/09/06 04:23:03;;;;;;;;;;;;;;;25.61;58.11;98809.31;5092848;28;19912;-48
2022/09/06 04:25:28;;;;;;;;;;;;;;;25.69;58.18;98807.84;5094061;28;19912;-48
2022/09/06 04:27:53;;;;;;;;;;;;;;;25.96;57.65;98814.34;5091670;28;19911;-49
2022/09/06 04:30:19;;;;;;;;;;;;;;;25.97;57.15;98813.28;5092744;28;19924;-48
2022/09/06 04:32:44;;;;;;;;;;;;;;;25.91;57.08;98801.81;5093742;28;19912;-49
2022/09/06 04:35:10;;;;;;;;;;;;;;;25.93;56.95;98804.22;5093935;28;19916;-49
2022/09/06 04:37:35;;;;;;;;;;;;;;;26.00;57.06;98805.41;5092579;28;19919;-50
2022/09/06 04:40:01;;;;;;;;;;;;;;;26.14;57.14;98802.72;5093697;28;19916;-49
2022/09/06 04:42:26;;;;;;;;;;;;;;;26.27;57.15;98807.25;5093791;28;19919;-49
2022/09/06 04:44:52;;;;;;;;;;;;;;;26.38;56.36;98810.56;5092439;28;19918;-49
2022/09/06 04:47:18;;;;;;;;;;;;;;;26.48;56.50;98814.91;5092338;28;19922;-49
2022/09/06 04:49:44;;;;;;;;;;;;;;;26.57;56.47;98806.94;5093661;28;19912;-47
2022/09/06 04:52:10;;;;;;;;;;;;;;;26.67;55.97;98817.50;5092273;28;20362;-48
2022/09/06 04:54:35;;;;;;;;;;;;;;;26.59;55.79;98807.44;5093802;28;19947;-48
2022/09/06 04:57:01;;;;;;;;;;;;;;;26.53;56.03;98808.63;5092200;28;19919;-48
2022/09/06 04:59:26;;;;;;;;;;;;;;;26.63;56.06;98811.13;5093626;28;19912;-48
2022/09/06 05:01:51;;;;;;;;;;;;;;;26.63;55.65;98809.22;5092074;28;20407;-49
2022/09/06 05:04:17;;;;;;;;;;;;;;;26.38;55.85;98810.56;5093318;28;19919;-49
2022/09/06 05:06:42;;;;;;;;;;;;;;;26.07;56.32;98811.16;5093318;28;20324;-49
2022/09/06 05:09:11;;;;;;;;;;;;;;;25.98;57.13;98817.53;5093224;28;20301;-50
2022/09/06 05:11:36;;;;;;;;;;;;;;;25.98;57.09;98810.28;5091915;28;20411;-49
2022/09/06 05:14:02;;;;;;;;;;;;;;;25.86;57.60;98818.81;5091830;28;19955;-48
2022/09/06 05:16:27;;;;;;;;;;;;;;;25.69;57.80;98819.38;5091875;28;20007;-49
2022/09/06 05:18:52;;;;;;;;;;;;;;;25.55;58.61;98826.63;5092980;28;19912;-49
2022/09/06 05:21:18;;;;;;;;;;;;;;;25.54;58.64;98819.66;5093048;28;19915;-48
2022/09/06 05:23:47;;;;;;;;;;;;;;;25.59;59.17;98829.53;5093006;28;20069;-48
2022/09/06 05:26:12;;;;;;;;;;;;;;;25.61;59.14;98833.50;5092906;28;19912;-48
2022/09/06 05:28:38;;;;;;;;;;;;;;;25.46;59.63;98825.72;5092879;28;20408;-47
2022/09/06 05:31:04;;;;;;;;;;;;;;;25.39;59.77;98844.09;5093128;28;19911;-48
2022/09/06 05:33:30;;;;;;;;;;;;;;;25.43;60.58;98835.16;5091330;28;20014;-48
2022/09/06 05:35:55;;;;;;;;;;;;;;;25.65;60.03;98831.81;5092754;28;20019;-48
2022/09/06 05:38:21;;;;;;;;;;;;;;;25.72;59.71;98831.44;5092479;28;19912;-47
2022/09/06 05:40:46;;;;;;;;;;;;;;;25.84;59.59;98833.66;5092749;28;20464;-49
2022/09/06 05:43:12;;;;;;;;;;;;;;;25.97;59.17;98834.78;5092958;28;19919;-50
2022/09/06 05:45:44;;;;;;;;;;;;;;;26.17;58.97;98830.91;5092689;28;19942;-49
2022/09/06 05:48:09;;;;;;;;;;;;;;;26.28;58.50;98824.22;5091333;28;19981;-47
2022/09/06 05:50:35;;;;;;;;;;;;;;;26.43;58.37;98831.97;5092612;28;20403;-48
2022/09/06 05:53:01;;;;;;;;;;;;;;;26.50;57.70;98828.84;5092539;28;20381;-47
2022/09/06 05:55:26;;;;;;;;;;;;;;;26.60;57.51;98823.31;5092532;28;19912;-48
2022/09/06 05:57:51;;;;;;;;;;;;;;;26.74;56.73;98817.84;5092494;28;19988;-48
2022/09/06 06:00:17;;;;;;;;;;;;;;;26.73;56.90;98832.44;5092421;28;20391;-48
2022/09/06 06:02:46;;;;;;;;;;;;;;;26.49;56.96;98829.97;5092518;28;19916;-48
2022/09/06 06:05:12;;;;;;;;;;;;;;;26.40;57.97;98827.19;5092619;28;19912;-48
2022/09/06 06:07:38;;;;;;;;;;;;;;;26.34;57.51;98831.09;5092440;28;19916;-48
2022/09/06 06:10:03;;;;;;;;;;;;;;;26.08;57.67;98828.13;5092519;28;20262;-48
2022/09/06 06:12:29;;;;;;;;;;;;;;;25.81;58.61;98836.94;5091033;28;20400;-48
2022/09/06 06:14:54;;;;;;;;;;;;;;;25.87;58.79;98838.44;5090917;28;19923;-48
2022/09/06 06:17:20;;;;;;;;;;;;;;;25.93;58.45;98825.72;5090949;28;20297;-48
2022/09/06 06:19:45;;;;;;;;;;;;;;;26.02;58.08;98822.03;5092115;28;19912;-48
2022/09/06 06:22:11;;;;;;;;;;;;;;;26.16;58.00;98822.03;5090893;28;19912;-48
2022/09/06 06:24:37;;;;;;;;;;;;;;;26.43;57.37;98829.28;5092171;28;19923;-49
2022/09/06 06:27:02;;;;;;;;;;;;;;;26.72;56.58;98828.13;5092423;28;20332;-48
2022/09/06 06:29:28;;;;;;;;;;;;;;;27.00;55.61;98836.13;5092389;28;19915;-49
2022/09/06 06:31:53;;;;;;;;;;;;;;;27.27;54.59;98835.25;5090832;28;19973;-49
2022/09/06 06:34:20;;;;;;;;;;;;;;;27.42;53.84;98837.56;5090537;28;19920;-48
2022/09/06 06:36:47;;;;;;;;;;;;;;;28.31;52.55;98832.25;5092057;28;19919;-49
2022/09/06 06:39:12;;;;;;;;;;;;;;;29.26;50.29;98845.06;5090706;28;19918;-49
2022/09/06 06:41:38;;;;;;;;;;;;;;;30.10;47.61;98849.28;5090766;28;20010;-47
2022/09/06 06:44:04;;;;;;;;;;;;;;;30.70;45.91;98836.53;5092014;28;19962;-49
2022/09/06 06:46:34;;;;;;;;;;;;;;;30.83;45.38;98852.50;5090740;28;19912;-48
2022/09/06 06:49:00;;;;;;;;;;;;;;;30.68;45.87;98842.25;5090681;28;20381;-48
2022/09/06 06:51:27;;;;;;;;;;;;;;;30.85;44.69;98842.13;5095422;28;19919;-48
2022/09/06 06:53:52;;;;;;;;;;;;;;;30.75;44.68;98842.53;5095953;28;19918;-48
2022/09/06 06:56:32;;;;;;;;;;;;;;;30.27;45.47;98839.16;5094936;28;19920;-50
2022/09/06 06:58:58;;;;;;;;;;;;;;;29.83;45.93;98840.50;5095691;28;19916;-50
2022/09/06 07:01:28;;;;;;;;;;;;;;;29.66;46.59;98833.19;5094465;28;19912;-49
2022/09/06 07:03:54;;;;;;;;;;;;;;;29.59;46.41;98832.91;5095716;28;19919;-49
2022/09/06 07:06:20;;;;;;;;;;;;;;;29.47;46.63;98830.88;5095592;28;20333;-49
2022/09/06 07:08:46;;;;;;;;;;;;;;;29.34;46.58;98829.94;5094308;28;19912;-49
2022/09/06 07:11:13;;;;;;;;;;;;;;;29.44;46.61;98828.81;5095572;28;19964;-50
2022/09/06 07:13:39;;;;;;;;;;;;;;;29.62;46.29;98824.13;5095585;28;20010;-50
2022/09/06 07:16:21;;;;;;;;;;;;;;;29.76;45.71;98821.25;5095456;28;20033;-49
2022/09/06 07:18:50;;;;;;;;;;;;;;;29.81;45.45;98829.19;5094042;28;20305;-48
2022/09/06 07:21:16;;;;;;;;;;;;;;;29.72;45.42;98825.72;5095670;28;19924;-48
2022/09/06 07:23:43;;;;;;;;;;;;;;;30.15;44.82;98827.47;5095400;28;19919;-49
2022/09/06 07:26:16;;;;;;;;;;;;;;;30.79;42.75;98824.50;5093960;28;20416;-48
2022/09/06 07:28:41;;;;;;;;;;;;;;;30.67;42.83;98827.94;5095291;28;19919;-50
2022/09/06 07:31:07;;;;;;;;;;;;;;;30.46;43.38;98817.09;5095187;28;20389;-49
2022/09/06 07:33:34;;;;;;;;;;;;;;;30.58;43.70;98818.28;5094936;28;19920;-48
2022/09/06 07:36:00;;;;;;;;;;;;;;;30.98;42.50;98809.69;5095068;28;19965;-49
2022/09/06 07:38:27;;;;;;;;;;;;;;;31.19;41.74;98813.16;5094993;28;20023;-50
2022/09/06 07:41:00;;;;;;;;;;;;;;;32.02;40.92;98818.66;5095036;28;19919;-49
2022/09/06 07:43:26;;;;;;;;;;;;;;;33.42;37.92;98801.72;5095019;28;19916;-48
2022/09/06 07:46:05;;;;;;;;;;;;;;;34.09;36.74;98811.88;5094844;28;19916;-49
2022/09/06 07:48:31;;;;;;;;;;;;;;;33.76;36.83;98826.66;5094925;28;19919;-50
2022/09/06 07:51:03;;;;;;;;;;;;;;;33.53;36.97;98821.03;5094828;28;19938;-49
2022/09/06 07:53:29;;;;;;;;;;;;;;;33.25;36.71;98829.25;5094823;28;19962;-49
2022/09/06 07:55:54;;;;;;;;;;;;;;;32.93;37.12;98828.34;5094703;28;19912;-50
2022/09/06 07:58:21;;;;;;;;;;;;;;;33.14;37.56;98828.97;5094595;28;19949;-50
2022/09/06 08:00:47;;;;;;;;;;;;;;;33.93;36.45;98828.25;5093106;28;20317;-48
2022/09/06 08:03:12;;;;;;;;;;;;;;;34.14;35.20;98824.47;5093263;28;19912;-50
2022/09/06 08:05:38;;;;;;;;;;;;;;;33.75;35.11;98813.41;5094500;28;20340;-49
2022/09/06 08:08:03;;;;;;;;;;;;;;;33.58;35.89;98811.78;5094538;28;19912;-49
2022/09/06 08:10:29;;;;;;;;;;;;;;;34.73;34.39;98819.91;5094436;28;19919;-49
2022/09/06 08:12:54;;;;;;;;;;;;;;;36.08;32.97;98819.97;5094399;28;20411;-49
2022/09/06 08:15:20;;;;;;;;;;;;;;;37.08;30.97;98825.97;5094314;28;19923;-50
2022/09/06 08:17:49;;;;;;;;;;;;;;;38.51;30.04;98829.09;5094288;28;19912;-50
2022/09/06 08:20:14;;;;;;;;;;;;;;;39.27;28.08;98824.69;5094167;28;19916;-50
2022/09/06 08:22:40;;;;;;;;;;;;;;;39.84;27.74;98832.97;5092956;28;20305;-49
2022/09/06 08:25:06;;;;;;;;;;;;;;;40.52;26.19;98832.09;5094125;28;20411;-48
2022/09/06 08:27:32;;;;;;;;;;;;;;;40.92;25.67;98827.97;5094005;28;19975;-50
2022/09/06 08:29:57;;;;;;;;;;;;;;;41.47;25.51;98828.44;5094099;28;20002;-49
2022/09/06 08:32:23;;;;;;;;;;;;;;;41.82;24.76;98815.59;5093982;28;19919;-47
2022/09/06 08:34:48;;;;;;;;;;;;;;;41.65;24.03;98804.28;5092436;28;20409;-48
2022/09/06 08:37:14;;;;;;;;;;;;;;;40.25;24.59;98813.28;5093877;28;20006;-49
2022/09/06 08:39:40;;;;;;;;;;;;;;;38.71;26.44;98835.88;5092507;28;20380;-49
2022/09/06 08:42:06;;;;;;;;;;;;;;;39.11;26.62;98827.78;5093769;28;20239;-49
2022/09/06 08:44:36;;;;;;;;;;;;;;;40.10;25.17;98822.75;5092492;28;20399;-49
2022/09/06 08:47:11;;;;;;;;;;;;;;;40.24;24.79;98814.47;5093898;28;19916;-49
2022/09/06 08:49:40;;;;;;;;;;;;;;;38.82;26.33;98818.66;5093740;28;19937;-50
2022/09/06 08:52:24;;;;;;;;;;;;;;;37.65;27.59;98820.28;5092229;28;19912;-49
2022/09/06 08:54:53;;;;;;;;;;;;;;;36.72;28.57;98820.09;5093839;28;20344;-48
2022/09/06 08:57:41;;;;;;;;;;;;;;;35.97;29.53;98819.81;5093469;28;20389;-49
2022/09/06 09:00:12;;;;;;;;;;;;;;;35.24;30.10;98827.16;5093383;28;19916;-50
2022/09/06 09:02:50;;;;;;;;;;;;;;;34.41;31.19;98820.81;5093551;28;19918;-49
2022/09/06 09:05:19;;;;;;;;;;;;;;;34.07;32.11;98829.72;5093409;28;20011;-49
2022/09/06 09:07:48;;;;;;;;;;;;;;;34.16;32.27;98827.63;5093343;28;19912;-49
2022/09/06 09:10:26;;;;;;;;;;;;;;;34.09;32.27;98811.88;5093310;28;19916;-48
2022/09/06 09:12:52;;;;;;;;;;;;;;;33.77;32.52;98811.91;5092704;28;19912;-48
2022/09/06 09:15:18;;;;;;;;;;;;;;;33.52;33.21;98805.03;5093201;28;20013;-50
2022/09/06 09:17:45;;;;;;;;;;;;;;;33.44;33.70;98812.22;5093176;28;19919;-50
2022/09/06 09:20:11;;;;;;;;;;;;;;;34.53;32.74;98813.63;5093064;28;20325;-49
2022/09/06 09:22:37;;;;;;;;;;;;;;;36.26;30.31;98791.00;5093059;28;19913;-50
2022/09/06 09:25:04;;;;;;;;;;;;;;;37.80;28.38;98791.84;5092985;28;19947;-50
2022/09/06 09:27:31;;;;;;;;;;;;;;;38.56;27.33;98782.16;5092921;28;19916;-50
2022/09/06 09:30:00;;;;;;;;;;;;;;;39.12;26.33;98791.72;5092967;28;19912;-50
2022/09/06 09:32:44;;;;;;;;;;;;;;;39.46;25.15;98777.66;5092940;28;19916;-49
2022/09/06 09:35:18;;;;;;;;;;;;;;;39.69;24.64;98771.75;5092879;28;19955;-50
2022/09/06 09:37:44;;;;;;;;;;;;;;;40.02;23.50;98772.50;5091450;28;19999;-50
2022/09/06 09:40:37;;;;;;;;;;;;;;;40.15;23.63;98778.34;5092725;28;20031;-50
2022/09/06 09:43:10;;;;;;;;;;;;;;;40.43;23.37;98782.19;5076909;28;19912;-50
2022/09/06 09:45:36;;;;;;;;;;;;;;;40.90;23.08;98774.53;5092740;28;19912;-51
2022/09/06 09:48:19;;;;;;;;;;;;;;;41.56;22.48;98787.44;5092648;28;19912;-50
2022/09/06 09:50:45;;;;;;;;;;;;;;;41.92;22.17;98792.66;5092602;28;19912;-52
2022/09/06 09:53:12;;;;;;;;;;;;;;;41.86;21.31;98780.50;5092599;28;19919;-52
2022/09/06 09:55:38;;;;;;;;;;;;;;;41.67;21.83;98773.59;5092515;28;19916;-51
2022/09/06 09:58:05;;;;;;;;;;;;;;;41.88;22.11;98773.38;5091175;28;19927;-52
2022/09/06 10:00:38;;;;;;;;;;;;;;;42.28;21.22;98768.22;5091102;28;19965;-52
2022/09/06 10:03:17;;;;;;;;;;;;;;;42.61;20.71;98762.31;5092447;28;20425;-51
2022/09/06 10:05:54;;;;;;;;;;;;;;;42.87;20.37;98758.03;5092375;28;20360;-52
2022/09/06 10:08:25;;;;;;;;;;;;;;;43.43;20.63;98755.59;5092379;28;19965;-52
2022/09/06 10:11:00;;;;;;;;;;;;;;;44.04;19.91;98743.41;5092374;28;19912;-52
2022/09/06 10:13:29;;;;;;;;;;;;;;;44.36;19.53;98733.69;5092441;28;19912;-52
2022/09/06 10:15:57;;;;;;;;;;;;;;;44.54;18.94;98735.31;5092286;28;19912;-52
2022/09/06 10:18:29;;;;;;;;;;;;;;;44.07;18.81;98734.31;5092216;28;20340;-52
2022/09/06 10:21:05;;;;;;;;;;;;;;;44.07;19.56;98720.47;5092528;28;19921;-52
2022/09/06 10:23:39;;;;;;;;;;;;;;;44.77;18.63;98721.31;5092215;28;19911;-52
2022/09/06 10:26:15;;;;;;;;;;;;;;;45.00;18.16;98705.78;5095293;28;19912;-52
2022/09/06 10:28:44;;;;;;;;;;;;;;;44.35;17.36;98709.22;5096468;28;19923;-50
2022/09/06 10:31:22;;;;;;;;;;;;;;;43.46;18.07;98704.22;5096309;28;19912;-52
2022/09/06 10:33:55;;;;;;;;;;;;;;;42.66;18.25;98704.69;5096187;28;20003;-52
2022/09/06 10:36:46;;;;;;;;;;;;;;;42.95;18.64;98698.75;5096258;28;19923;-52
2022/09/06 10:39:17;;;;;;;;;;;;;;;42.57;18.64;98679.56;5093047;28;19959;-52
2022/09/06 10:41:42;;;;;;;;;;;;;;;42.49;18.67;98670.63;5096106;28;20298;-51
2022/09/06 10:44:26;;;;;;;;;;;;;;;42.61;18.24;98663.75;5096135;28;19922;-52
2022/09/06 10:46:57;;;;;;;;;;;;;;;42.42;18.61;98673.47;5096024;28;20328;-52
2022/09/06 10:49:23;;;;;;;;;;;;;;;42.77;18.66;98676.13;5096080;28;19912;-52
2022/09/06 10:51:51;;;;;;;;;;;;;;;43.17;18.38;98666.00;5095935;28;19922;-52
2022/09/06 10:54:22;;;;;;;;;;;;;;;43.33;18.52;98661.81;5094674;28;20304;-53
2022/09/06 10:56:57;;;;;;;;;;;;;;;43.25;18.48;98652.84;5095858;28;19912;-52
2022/09/06 10:59:38;;;;;;;;;;;;;;;43.36;18.28;98656.22;5095700;28;19919;-52
2022/09/06 11:02:12;;;;;;;;;;;;;;;43.42;18.04;98637.94;5095703;28;19916;-51
2022/09/06 11:04:40;;;;;;;;;;;;;;;43.39;18.49;98633.28;5095660;28;19966;-52
2022/09/06 11:07:13;;;;;;;;;;;;;;;43.13;18.08;98639.66;5094349;28;19912;-52
2022/09/06 11:09:45;;;;;;;;;;;;;;;42.83;18.09;98644.09;5095732;28;19916;-53
2022/09/06 11:12:29;;;;;;;;;;;;;;;42.30;18.57;98635.41;5094305;28;19916;-51
2022/09/06 11:14:54;;;;;;;;;;;;;;;42.16;18.78;98628.13;5095532;28;19955;-51
2022/09/06 11:17:33;;;;;;;;;;;;;;;42.16;18.86;98621.78;5095494;28;19955;-53
2022/09/06 11:20:08;;;;;;;;;;;;;;;42.14;19.11;98615.91;5095321;28;19953;-52
2022/09/06 11:22:36;;;;;;;;;;;;;;;42.04;19.14;98620.41;5095406;28;19926;-51
2022/09/06 11:25:20;;;;;;;;;;;;;;;41.79;19.24;98610.44;5095277;28;19920;-52
2022/09/06 11:27:50;;;;;;;;;;;;;;;41.29;19.52;98619.25;5095249;28;19916;-52
2022/09/06 11:30:17;;;;;;;;;;;;;;;41.43;19.84;98605.31;5095259;28;19955;-51
2022/09/06 11:32:47;;;;;;;;;;;;;;;40.99;19.64;98604.19;5095010;28;19919;-52
2022/09/06 11:35:24;;;;;;;;;;;;;;;40.94;20.25;98590.84;5094843;28;19952;-53
2022/09/06 11:37:58;;;;;;;;;;;;;;;41.26;19.78;98600.78;5095115;28;19916;-52
2022/09/06 11:40:25;;;;;;;;;;;;;;;41.27;19.89;98591.34;5095043;28;19948;-53
2022/09/06 11:42:51;;;;;;;;;;;;;;;40.93;20.04;98581.00;5095022;28;19955;-53
2022/09/06 11:45:21;;;;;;;;;;;;;;;40.93;20.40;98590.06;5095000;28;19965;-52
2022/09/06 11:47:47;;;;;;;;;;;;;;;41.02;19.88;98586.84;5095593;28;20259;-51
2022/09/06 11:50:25;;;;;;;;;;;;;;;40.84;20.53;98576.00;5094929;28;19912;-53
2022/09/06 11:52:54;;;;;;;;;;;;;;;40.99;20.35;98581.34;5094807;28;19912;-52
2022/09/06 11:55:23;;;;;;;;;;;;;;;40.73;19.99;98583.56;5093452;28;19919;-52
2022/09/06 11:57:53;;;;;;;;;;;;;;;39.84;20.78;98580.13;5094749;28;19916;-51
2022/09/06 12:00:22;;;;;;;;;;;;;;;38.92;21.69;98574.47;5094611;28;19922;-51
2022/09/06 12:02:49;;;;;;;;;;;;;;;38.64;22.34;98582.72;5094873;28;19912;-52
2022/09/06 12:05:17;;;;;;;;;;;;;;;38.66;22.82;98572.91;5094581;28;20302;-52
2022/09/06 12:08:01;;;;;;;;;;;;;;;38.99;22.30;98576.44;5094532;28;19919;-52
2022/09/06 12:10:29;;;;;;;;;;;;;;;39.33;22.13;98576.75;5094472;28;20289;-52
2022/09/06 12:12:55;;;;;;;;;;;;;;;39.39;22.14;98563.41;5094475;28;19920;-51
2022/09/06 12:15:30;;;;;;;;;;;;;;;39.32;21.90;98561.47;5094404;28;19912;-53
2022/09/06 12:17:57;;;;;;;;;;;;;;;39.19;22.69;98567.78;5093036;28;19934;-53
2022/09/06 12:21:02;;;;;;;;;;;;;;;39.16;22.63;98561.13;5094191;28;19937;-52
2022/09/06 12:23:33;;;;;;;;;;;;;;;39.35;22.60;98562.63;5051679;28;19912;-52
2022/09/06 12:25:58;;;;;;;;;;;;;;;39.64;22.37;98563.34;5051581;28;19917;-52
2022/09/06 12:28:30;;;;;;;;;;;;;;;39.49;22.75;98572.84;5051509;28;20401;-53
2022/09/06 12:30:59;;;;;;;;;;;;;;;39.68;22.26;98569.63;5051498;28;19919;-52
2022/09/06 12:33:31;;;;;;;;;;;;;;;39.64;22.29;98562.56;5051369;28;19916;-53
2022/09/06 12:36:16;;;;;;;;;;;;;;;38.94;22.87;98576.81;5051423;28;19921;-52
2022/09/06 12:38:56;;;;;;;;;;;;;;;38.14;23.67;98583.41;5051501;28;20023;-51
2022/09/06 12:41:22;;;;;;;;;;;;;;;37.73;23.92;98572.66;5051297;28;19913;-52
2022/09/06 12:43:48;;;;;;;;;;;;;;;37.80;24.07;98566.44;5051369;28;19913;-49
2022/09/06 12:46:15;;;;;;;;;;;;;;;37.91;24.66;98561.75;5051383;28;19916;-49
2022/09/06 12:48:43;;;;;;;;;;;;;;;38.17;23.85;98560.69;5050262;28;20349;-49
2022/09/06 12:51:18;;;;;;;;;;;;;;;38.14;24.55;98536.81;5051277;28;19912;-50
2022/09/06 12:53:54;;;;;;;;;;;;;;;38.07;23.96;98540.31;5051802;28;19917;-50
2022/09/06 12:56:20;;;;;;;;;;;;;;;37.91;24.61;98548.06;5052079;28;19917;-50